Observations for BARCELONA AIRPORT, Spain (LEBL)

LEBL 252200Z 34007KT 9999 FEW030 19/14 Q1020 NOSIG  
LEBL 252130Z 33007G21KT 9999 FEW030 19/14 Q1020 NOSIG   
LEBL 252100Z 01007KT 9999 FEW030 21/14 Q1020 NOSIG  
LEBL 252030Z 07010KT 030V090 9999 FEW030 21/14 Q1020 TEMPO FEW025CB 
LEBL 252000Z 05007KT 020V080 9999 FEW028 22/14 Q1019 RESHRA TEMPO FEW025CB  
LEBL 251936Z 06008KT 9999 -SHRA FEW025TCU 22/13 Q1019 TEMPO FEW025CB
LEBL 251930Z 05010KT 9999 FEW025TCU 22/13 Q1019 RERA TEMPO FEW025CB 
LEBL 251900Z 07010KT 040V100 9999 -TSRA FEW025CB 21/16 Q1019 BECMG NSW FEW025CB 
LEBL 251830Z 07014KT 030V100 9999 FEW020 23/15 Q1019 TEMPO FEW025CB 
LEBL 251800Z 08010KT 040V100 9999 FEW020 BKN055 23/16 Q1018 TEMPO FEW025CB  
LEBL 251730Z 08014KT 9999 FEW020 BKN055 23/17 Q1018 NOSIG   
LEBL 251700Z 09014KT 9999 FEW020 SCT050 23/18 Q1017 NOSIG   
LEBL 251630Z 09015KT 9999 FEW020 24/18 Q1017 NOSIG  
LEBL 251600Z 09015KT 9999 FEW022 24/17 Q1017 NOSIG  
LEBL 251530Z 09014KT 060V120 9999 FEW025 24/17 Q1017 NOSIG  
LEBL 251500Z 09012KT 9999 FEW025 24/18 Q1017 TEMPO FEW025CB 
LEBL 251430Z 08013KT 9999 FEW022 SCT035 25/17 Q1017 TEMPO FEW025CB  
LEBL 251400Z 08012KT 9999 FEW020 SCT050 25/17 Q1017 NOSIG   
LEBL 251330Z 08013KT 9999 FEW018 SCT050 25/18 Q1017 NOSIG   
LEBL 251300Z 08013KT 040V100 9999 FEW015 SCT030 25/17 Q1017 NOSIG   
LEBL 251230Z 07011KT 9999 FEW015 SCT027 25/17 Q1017 NOSIG   
LEBL 251200Z 10010KT 9999 FEW013 SCT020 BKN045 25/19 Q1017 NOSIG
LEBL 251130Z 10010KT 9999 FEW013 BKN041 24/19 Q1017 NOSIG   
LEBL 251100Z 08010KT 9999 FEW018 BKN039 24/19 Q1017 NOSIG   
LEBL 251030Z 07007KT 030V100 9999 FEW020 SCT026 24/19 Q1018 NOSIG   
LEBL 251000Z 08011KT 040V110 9999 FEW018 SCT026 24/19 Q1017 NOSIG   
LEBL 250930Z 06006KT 010V100 9999 FEW018 SCT025 23/19 Q1018 NOSIG   
LEBL 250900Z 34006G17KT 9999 FEW018 SCT024 22/18 Q1017 NOSIG
LEBL 250830Z 34007KT 290V020 9999 FEW015 21/18 Q1017 NOSIG  
LEBL 250800Z 33006G16KT 290V030 9999 FEW015 SCT019 21/17 Q1017 NOSIG
LEBL 250730Z 33008KT 260V350 8000 FEW015 SCT020 20/17 Q1017 NOSIG   
LEBL 250700Z 32006KT 260V040 8000 FEW012 20/17 Q1017 NOSIG  
LEBL 250630Z 34008G18KT 280V030 8000 FEW012 SCT020 19/17 Q1016 NOSIG
LEBL 250530Z 33006KT 240V010 7000 FEW012 SCT020 19/17 Q1016 NOSIG   
LEBL 250500Z 33007KT 7000 FEW012 SCT020 19/18 Q1016 NOSIG   
LEBL 250430Z 32006KT 7000 FEW012 19/17 Q1016 NOSIG  
LEBL 250400Z 31005KT 280V340 7000 FEW012 19/17 Q1016 NOSIG  
LEBL 250330Z 33006KT 7000 FEW015 19/18 Q1016 NOSIG  
LEBL 250300Z 32006KT 7000 FEW015 19/18 Q1017 NOSIG  
LEBL 250230Z 34005KT 9000 FEW015 19/18 Q1017 NOSIG  
LEBL 250200Z 34005KT 9999 FEW015 19/18 Q1017 NOSIG  
LEBL 250130Z 33004KT 9999 FEW015 20/18 Q1017 NOSIG  
LEBL 250100Z 32004KT 9999 FEW015 19/18 Q1018 NOSIG  
LEBL 250030Z 33004KT 9999 FEW015 SCT020 20/18 Q1018 NOSIG   
LEBL 250000Z 31004KT 9999 FEW015 SCT020 20/18 Q1018 NOSIG   
LEBL 242330Z 32003KT 9999 FEW015 SCT020 20/18 Q1018 NOSIG   
LEBL 242300Z 32003KT 9999 SCT015 SCT020 20/18 Q1018 NOSIG   
LEBL 242230Z VRB01KT 9999 SCT015 21/18 Q1019 NOSIG  
LEBL 242200Z VRB02KT 9999 FEW015 SCT020 21/18 Q1019 NOSIG   
LEBL 242130Z VRB02KT 9999 FEW015 21/18 Q1019 NOSIG